sensor_id;sensor_type;location;lat;lon;timestamp;temperature;humidity
15286;DHT22;7744;52.172;10.668;2023-04-25T00:02:22;8.60;1.00
15286;DHT22;7744;52.172;10.668;2023-04-25T00:04:47;8.70;1.00
15286;DHT22;7744;52.172;10.668;2023-04-25T00:07:15;8.20;1.00
15286;DHT22;7744;52.172;10.668;2023-04-25T00:09:42;8.20;1.00
15286;DHT22;7744;52.172;10.668;2023-04-25T00:12:09;8.30;1.00
15286;DHT22;7744;52.172;10.668;2023-04-25T00:14:36;8.30;1.00
15286;DHT22;7744;52.172;10.668;2023-04-25T00:17:03;9.00;1.00
15286;DHT22;7744;52.172;10.668;2023-04-25T00:19:29;8.70;1.00
15286;DHT22;7744;52.172;10.668;2023-04-25T00:21:55;8.20;1.00
15286;DHT22;7744;52.172;10.668;2023-04-25T00:24:22;8.20;1.00
15286;DHT22;7744;52.172;10.668;2023-04-25T00:26:55;8.40;1.00
15286;DHT22;7744;52.172;10.668;2023-04-25T00:29:20;8.10;1.00
15286;DHT22;7744;52.172;10.668;2023-04-25T00:31:46;8.00;1.00
15286;DHT22;7744;52.172;10.668;2023-04-25T00:34:12;8.00;1.00
15286;DHT22;7744;52.172;10.668;2023-04-25T00:36:47;8.00;1.00
15286;DHT22;7744;52.172;10.668;2023-04-25T00:39:29;8.40;1.00
15286;DHT22;7744;52.172;10.668;2023-04-25T00:41:55;8.60;1.00
15286;DHT22;7744;52.172;10.668;2023-04-25T00:44:43;8.70;1.00
15286;DHT22;7744;52.172;10.668;2023-04-25T00:47:18;8.00;1.00
15286;DHT22;7744;52.172;10.668;2023-04-25T00:50:02;8.70;1.00
15286;DHT22;7744;52.172;10.668;2023-04-25T00:52:46;8.60;1.00
15286;DHT22;7744;52.172;10.668;2023-04-25T00:55:15;8.70;1.00
15286;DHT22;7744;52.172;10.668;2023-04-25T00:57:44;8.60;1.00
15286;DHT22;7744;52.172;10.668;2023-04-25T01:00:22;8.50;1.00
15286;DHT22;7744;52.172;10.668;2023-04-25T01:02:54;8.00;1.00
15286;DHT22;7744;52.172;10.668;2023-04-25T01:05:26;8.10;1.00
15286;DHT22;7744;52.172;10.668;2023-04-25T01:08:13;8.70;1.00
15286;DHT22;7744;52.172;10.668;2023-04-25T01:10:39;8.50;1.00
15286;DHT22;7744;52.172;10.668;2023-04-25T01:13:08;8.00;1.00
15286;DHT22;7744;52.172;10.668;2023-04-25T01:15:40;8.10;1.00
15286;DHT22;7744;52.172;10.668;2023-04-25T01:18:06;8.00;1.00
15286;DHT22;7744;52.172;10.668;2023-04-25T01:20:33;8.50;1.00
15286;DHT22;7744;52.172;10.668;2023-04-25T01:23:03;9.10;1.00
15286;DHT22;7744;52.172;10.668;2023-04-25T01:25:29;8.10;1.00
15286;DHT22;7744;52.172;10.668;2023-04-25T01:27:56;8.50;1.00
15286;DHT22;7744;52.172;10.668;2023-04-25T01:30:22;8.10;1.00
15286;DHT22;7744;52.172;10.668;2023-04-25T01:32:48;8.10;1.00
15286;DHT22;7744;52.172;10.668;2023-04-25T01:35:14;8.00;1.00
15286;DHT22;7744;52.172;10.668;2023-04-25T01:37:41;8.00;1.00
15286;DHT22;7744;52.172;10.668;2023-04-25T01:40:08;8.50;1.00
15286;DHT22;7744;52.172;10.668;2023-04-25T01:42:36;8.00;1.00
15286;DHT22;7744;52.172;10.668;2023-04-25T01:45:02;8.10;1.00
15286;DHT22;7744;52.172;10.668;2023-04-25T01:47:28;8.00;1.00
15286;DHT22;7744;52.172;10.668;2023-04-25T01:49:58;7.90;1.00
15286;DHT22;7744;52.172;10.668;2023-04-25T01:52:33;8.00;1.00
15286;DHT22;7744;52.172;10.668;2023-04-25T01:55:01;8.00;1.00
15286;DHT22;7744;52.172;10.668;2023-04-25T01:57:27;8.20;1.00
15286;DHT22;7744;52.172;10.668;2023-04-25T02:00:02;8.00;1.00
15286;DHT22;7744;52.172;10.668;2023-04-25T02:02:28;8.00;1.00
15286;DHT22;7744;52.172;10.668;2023-04-25T02:04:54;8.10;1.00
15286;DHT22;7744;52.172;10.668;2023-04-25T02:07:20;8.10;1.00
15286;DHT22;7744;52.172;10.668;2023-04-25T02:09:46;8.00;1.00
15286;DHT22;7744;52.172;10.668;2023-04-25T02:12:11;8.20;1.00
15286;DHT22;7744;52.172;10.668;2023-04-25T02:14:38;7.90;1.00
15286;DHT22;7744;52.172;10.668;2023-04-25T02:17:04;7.90;1.00
15286;DHT22;7744;52.172;10.668;2023-04-25T02:19:31;8.00;1.00
15286;DHT22;7744;52.172;10.668;2023-04-25T02:21:56;8.00;1.00
15286;DHT22;7744;52.172;10.668;2023-04-25T02:24:23;8.00;1.00
15286;DHT22;7744;52.172;10.668;2023-04-25T02:26:49;8.10;1.00
15286;DHT22;7744;52.172;10.668;2023-04-25T02:29:15;8.00;1.00
15286;DHT22;7744;52.172;10.668;2023-04-25T02:31:41;8.00;1.00
15286;DHT22;7744;52.172;10.668;2023-04-25T02:34:07;8.10;1.00
15286;DHT22;7744;52.172;10.668;2023-04-25T02:36:35;8.20;1.00
15286;DHT22;7744;52.172;10.668;2023-04-25T02:39:02;8.30;1.00
15286;DHT22;7744;52.172;10.668;2023-04-25T02:41:28;8.00;1.00
15286;DHT22;7744;52.172;10.668;2023-04-25T02:43:54;7.90;1.00
15286;DHT22;7744;52.172;10.668;2023-04-25T02:46:21;8.00;1.00
15286;DHT22;7744;52.172;10.668;2023-04-25T02:48:47;8.00;1.00
15286;DHT22;7744;52.172;10.668;2023-04-25T02:51:13;8.00;1.00
15286;DHT22;7744;52.172;10.668;2023-04-25T02:53:41;8.00;1.00
15286;DHT22;7744;52.172;10.668;2023-04-25T02:56:07;8.10;1.00
15286;DHT22;7744;52.172;10.668;2023-04-25T02:58:33;8.10;1.00
15286;DHT22;7744;52.172;10.668;2023-04-25T03:00:58;8.10;1.00
15286;DHT22;7744;52.172;10.668;2023-04-25T03:03:35;8.00;1.00
15286;DHT22;7744;52.172;10.668;2023-04-25T03:06:01;8.10;1.00
15286;DHT22;7744;52.172;10.668;2023-04-25T03:08:27;8.20;1.00
15286;DHT22;7744;52.172;10.668;2023-04-25T03:10:58;8.00;1.00
15286;DHT22;7744;52.172;10.668;2023-04-25T03:13:24;8.00;1.00
15286;DHT22;7744;52.172;10.668;2023-04-25T03:15:50;8.40;1.00
15286;DHT22;7744;52.172;10.668;2023-04-25T03:18:15;8.00;1.00
15286;DHT22;7744;52.172;10.668;2023-04-25T03:20:41;7.90;1.00
15286;DHT22;7744;52.172;10.668;2023-04-25T03:23:07;7.90;1.00
15286;DHT22;7744;52.172;10.668;2023-04-25T03:25:34;7.90;1.00
15286;DHT22;7744;52.172;10.668;2023-04-25T03:27:59;7.90;1.00
15286;DHT22;7744;52.172;10.668;2023-04-25T03:30:25;7.80;1.00
15286;DHT22;7744;52.172;10.668;2023-04-25T03:32:50;7.90;1.00
15286;DHT22;7744;52.172;10.668;2023-04-25T03:35:17;7.90;1.00
15286;DHT22;7744;52.172;10.668;2023-04-25T03:37:44;7.90;1.00
15286;DHT22;7744;52.172;10.668;2023-04-25T03:40:12;7.90;1.00
15286;DHT22;7744;52.172;10.668;2023-04-25T03:42:38;8.10;1.00
15286;DHT22;7744;52.172;10.668;2023-04-25T03:45:04;7.90;1.00
15286;DHT22;7744;52.172;10.668;2023-04-25T03:47:33;7.90;1.00
15286;DHT22;7744;52.172;10.668;2023-04-25T03:50:00;7.80;1.00
15286;DHT22;7744;52.172;10.668;2023-04-25T15:18:41;9.50;1.00
15286;DHT22;7744;52.172;10.668;2023-04-25T15:21:07;9.60;1.00
15286;DHT22;7744;52.172;10.668;2023-04-25T15:23:35;10.90;1.00
15286;DHT22;7744;52.172;10.668;2023-04-25T15:26:01;9.70;1.00
15286;DHT22;7744;52.172;10.668;2023-04-25T15:28:27;9.60;1.00
15286;DHT22;7744;52.172;10.668;2023-04-25T15:30:52;9.60;1.00
15286;DHT22;7744;52.172;10.668;2023-04-25T15:33:18;9.60;1.00
15286;DHT22;7744;52.172;10.668;2023-04-25T15:35:44;9.70;1.00
15286;DHT22;7744;52.172;10.668;2023-04-25T15:38:10;9.50;1.00
15286;DHT22;7744;52.172;10.668;2023-04-25T15:40:36;9.60;1.00
15286;DHT22;7744;52.172;10.668;2023-04-25T15:43:02;9.50;1.00
15286;DHT22;7744;52.172;10.668;2023-04-25T15:45:27;9.40;1.00
15286;DHT22;7744;52.172;10.668;2023-04-25T15:47:55;9.40;1.00
15286;DHT22;7744;52.172;10.668;2023-04-25T15:50:21;9.50;1.00
15286;DHT22;7744;52.172;10.668;2023-04-25T15:52:50;9.50;1.00
15286;DHT22;7744;52.172;10.668;2023-04-25T15:55:18;9.60;1.00
15286;DHT22;7744;52.172;10.668;2023-04-25T15:57:43;10.00;1.00
15286;DHT22;7744;52.172;10.668;2023-04-25T16:00:10;9.60;1.00
15286;DHT22;7744;52.172;10.668;2023-04-25T16:02:41;9.60;1.00
15286;DHT22;7744;52.172;10.668;2023-04-25T16:05:07;9.50;1.00
15286;DHT22;7744;52.172;10.668;2023-04-25T16:07:33;9.30;1.00
15286;DHT22;7744;52.172;10.668;2023-04-25T16:09:59;9.30;1.00
15286;DHT22;7744;52.172;10.668;2023-04-25T16:12:24;9.20;1.00
15286;DHT22;7744;52.172;10.668;2023-04-25T16:14:50;10.50;1.00
15286;DHT22;7744;52.172;10.668;2023-04-25T16:17:16;9.10;1.00
15286;DHT22;7744;52.172;10.668;2023-04-25T16:19:41;9.10;1.00
15286;DHT22;7744;52.172;10.668;2023-04-25T16:22:07;9.00;1.00
15286;DHT22;7744;52.172;10.668;2023-04-25T16:24:34;9.10;1.00
15286;DHT22;7744;52.172;10.668;2023-04-25T16:26:59;9.00;1.00
15286;DHT22;7744;52.172;10.668;2023-04-25T16:29:25;8.90;1.00
15286;DHT22;7744;52.172;10.668;2023-04-25T16:31:50;8.80;1.00
15286;DHT22;7744;52.172;10.668;2023-04-25T16:34:16;8.70;1.00
15286;DHT22;7744;52.172;10.668;2023-04-25T16:36:41;8.60;1.00
15286;DHT22;7744;52.172;10.668;2023-04-25T16:39:07;8.50;1.00
15286;DHT22;7744;52.172;10.668;2023-04-25T16:41:33;8.50;1.00
15286;DHT22;7744;52.172;10.668;2023-04-25T16:43:58;8.50;1.00
15286;DHT22;7744;52.172;10.668;2023-04-25T16:46:24;8.60;1.00
15286;DHT22;7744;52.172;10.668;2023-04-25T16:48:50;8.90;1.00
15286;DHT22;7744;52.172;10.668;2023-04-25T16:51:16;8.70;1.00
15286;DHT22;7744;52.172;10.668;2023-04-25T16:53:42;8.80;1.00
15286;DHT22;7744;52.172;10.668;2023-04-25T16:56:07;8.90;1.00
15286;DHT22;7744;52.172;10.668;2023-04-25T16:58:34;8.90;1.00
15286;DHT22;7744;52.172;10.668;2023-04-25T17:04:20;8.70;1.00
15286;DHT22;7744;52.172;10.668;2023-04-25T17:06:46;8.50;1.00
15286;DHT22;7744;52.172;10.668;2023-04-25T17:09:12;8.50;1.00
15286;DHT22;7744;52.172;10.668;2023-04-25T17:11:38;8.40;1.00
15286;DHT22;7744;52.172;10.668;2023-04-25T17:14:26;8.30;1.00
15286;DHT22;7744;52.172;10.668;2023-04-25T17:16:52;8.30;1.00
15286;DHT22;7744;52.172;10.668;2023-04-25T17:19:17;8.20;1.00
15286;DHT22;7744;52.172;10.668;2023-04-25T17:21:43;8.60;1.00
15286;DHT22;7744;52.172;10.668;2023-04-25T17:24:09;8.10;1.00
15286;DHT22;7744;52.172;10.668;2023-04-25T17:26:35;8.10;1.00
15286;DHT22;7744;52.172;10.668;2023-04-25T17:29:05;8.20;1.00
15286;DHT22;7744;52.172;10.668;2023-04-25T17:31:30;8.20;1.00
15286;DHT22;7744;52.172;10.668;2023-04-25T17:33:56;8.40;1.00
15286;DHT22;7744;52.172;10.668;2023-04-25T17:36:23;8.40;1.00
15286;DHT22;7744;52.172;10.668;2023-04-25T17:38:48;8.50;1.00
15286;DHT22;7744;52.172;10.668;2023-04-25T17:41:14;8.40;1.00
15286;DHT22;7744;52.172;10.668;2023-04-25T17:43:40;8.30;1.00
15286;DHT22;7744;52.172;10.668;2023-04-25T17:46:05;8.30;1.00
15286;DHT22;7744;52.172;10.668;2023-04-25T17:48:31;8.10;1.00
15286;DHT22;7744;52.172;10.668;2023-04-25T17:50:57;8.10;1.00
15286;DHT22;7744;52.172;10.668;2023-04-25T17:53:23;8.10;1.00
15286;DHT22;7744;52.172;10.668;2023-04-25T17:55:49;8.10;1.00
15286;DHT22;7744;52.172;10.668;2023-04-25T17:58:15;8.10;1.00
15286;DHT22;7744;52.172;10.668;2023-04-25T18:00:41;8.10;1.00
15286;DHT22;7744;52.172;10.668;2023-04-25T18:03:07;8.20;1.00
15286;DHT22;7744;52.172;10.668;2023-04-25T18:05:33;8.10;1.00
15286;DHT22;7744;52.172;10.668;2023-04-25T18:07:59;8.10;1.00
15286;DHT22;7744;52.172;10.668;2023-04-25T18:10:25;8.10;1.00
15286;DHT22;7744;52.172;10.668;2023-04-25T18:12:50;8.00;1.00
15286;DHT22;7744;52.172;10.668;2023-04-25T18:15:16;8.00;1.00
15286;DHT22;7744;52.172;10.668;2023-04-25T18:17:41;8.00;1.00
15286;DHT22;7744;52.172;10.668;2023-04-25T18:20:10;8.40;1.00
15286;DHT22;7744;52.172;10.668;2023-04-25T18:22:39;7.80;1.00
15286;DHT22;7744;52.172;10.668;2023-04-25T18:25:05;7.80;1.00
15286;DHT22;7744;52.172;10.668;2023-04-25T18:27:32;7.70;1.00
15286;DHT22;7744;52.172;10.668;2023-04-25T18:29:58;7.70;1.00
15286;DHT22;7744;52.172;10.668;2023-04-25T18:32:24;7.70;1.00
15286;DHT22;7744;52.172;10.668;2023-04-25T18:34:53;8.60;1.00
15286;DHT22;7744;52.172;10.668;2023-04-25T18:37:18;7.80;1.00
15286;DHT22;7744;52.172;10.668;2023-04-25T18:39:45;7.80;1.00
15286;DHT22;7744;52.172;10.668;2023-04-25T18:42:11;7.90;1.00
15286;DHT22;7744;52.172;10.668;2023-04-25T18:44:36;7.90;1.00
15286;DHT22;7744;52.172;10.668;2023-04-25T18:47:06;7.90;1.00
15286;DHT22;7744;52.172;10.668;2023-04-25T18:49:32;8.80;1.00
15286;DHT22;7744;52.172;10.668;2023-04-25T18:51:58;7.90;1.00
15286;DHT22;7744;52.172;10.668;2023-04-25T18:54:23;7.80;1.00
15286;DHT22;7744;52.172;10.668;2023-04-25T18:56:49;7.70;1.00
15286;DHT22;7744;52.172;10.668;2023-04-25T18:59:15;7.50;1.00
15286;DHT22;7744;52.172;10.668;2023-04-25T19:01:54;7.40;1.00
15286;DHT22;7744;52.172;10.668;2023-04-25T19:04:20;7.40;1.00
15286;DHT22;7744;52.172;10.668;2023-04-25T19:06:46;7.30;1.00
15286;DHT22;7744;52.172;10.668;2023-04-25T19:09:14;7.30;1.00
15286;DHT22;7744;52.172;10.668;2023-04-25T19:11:39;7.30;1.00
15286;DHT22;7744;52.172;10.668;2023-04-25T19:14:05;7.30;1.00
15286;DHT22;7744;52.172;10.668;2023-04-25T19:16:31;8.40;1.00
15286;DHT22;7744;52.172;10.668;2023-04-25T19:19:03;7.20;1.00
15286;DHT22;7744;52.172;10.668;2023-04-25T19:21:30;8.20;1.00
15286;DHT22;7744;52.172;10.668;2023-04-25T19:23:57;8.00;1.00
15286;DHT22;7744;52.172;10.668;2023-04-25T19:26:22;8.40;1.00
15286;DHT22;7744;52.172;10.668;2023-04-25T19:29:08;8.10;1.00
15286;DHT22;7744;52.172;10.668;2023-04-25T19:31:35;7.00;1.00
15286;DHT22;7744;52.172;10.668;2023-04-25T19:34:02;7.30;1.00
15286;DHT22;7744;52.172;10.668;2023-04-25T19:36:29;7.00;1.00
15286;DHT22;7744;52.172;10.668;2023-04-25T19:38:54;6.90;1.00
15286;DHT22;7744;52.172;10.668;2023-04-25T19:41:26;6.80;1.00
15286;DHT22;7744;52.172;10.668;2023-04-25T19:43:52;6.70;1.00
15286;DHT22;7744;52.172;10.668;2023-04-25T19:46:18;6.70;1.00
15286;DHT22;7744;52.172;10.668;2023-04-25T19:48:43;6.70;1.00
15286;DHT22;7744;52.172;10.668;2023-04-25T19:51:09;6.60;1.00
15286;DHT22;7744;52.172;10.668;2023-04-25T19:53:34;6.50;1.00
15286;DHT22;7744;52.172;10.668;2023-04-25T19:56:00;6.50;1.00
15286;DHT22;7744;52.172;10.668;2023-04-25T19:58:26;6.40;1.00
15286;DHT22;7744;52.172;10.668;2023-04-25T20:00:52;6.40;1.00
15286;DHT22;7744;52.172;10.668;2023-04-25T20:03:18;6.30;1.00
15286;DHT22;7744;52.172;10.668;2023-04-25T20:05:43;6.30;1.00
15286;DHT22;7744;52.172;10.668;2023-04-25T20:08:09;6.40;1.00
15286;DHT22;7744;52.172;10.668;2023-04-25T20:10:34;6.40;1.00
15286;DHT22;7744;52.172;10.668;2023-04-25T20:13:01;6.40;1.00
15286;DHT22;7744;52.172;10.668;2023-04-25T20:15:26;6.30;1.00
15286;DHT22;7744;52.172;10.668;2023-04-25T20:17:52;6.30;1.00
15286;DHT22;7744;52.172;10.668;2023-04-25T20:20:18;6.20;1.00
15286;DHT22;7744;52.172;10.668;2023-04-25T20:22:44;6.20;1.00
15286;DHT22;7744;52.172;10.668;2023-04-25T20:25:12;6.20;1.00
15286;DHT22;7744;52.172;10.668;2023-04-25T20:27:38;6.20;1.00
15286;DHT22;7744;52.172;10.668;2023-04-25T20:30:10;6.30;1.00
15286;DHT22;7744;52.172;10.668;2023-04-25T20:32:40;6.20;1.00
15286;DHT22;7744;52.172;10.668;2023-04-25T20:35:07;6.20;1.00
15286;DHT22;7744;52.172;10.668;2023-04-25T20:37:34;6.20;1.00
15286;DHT22;7744;52.172;10.668;2023-04-25T20:40:00;6.20;1.00
15286;DHT22;7744;52.172;10.668;2023-04-25T20:42:26;6.20;1.00
15286;DHT22;7744;52.172;10.668;2023-04-25T20:44:52;6.10;1.00
15286;DHT22;7744;52.172;10.668;2023-04-25T20:47:19;6.00;1.00
15286;DHT22;7744;52.172;10.668;2023-04-25T20:49:44;6.00;1.00
15286;DHT22;7744;52.172;10.668;2023-04-25T20:52:10;6.10;1.00
15286;DHT22;7744;52.172;10.668;2023-04-25T20:54:36;6.10;1.00
15286;DHT22;7744;52.172;10.668;2023-04-25T20:57:02;6.10;1.00
15286;DHT22;7744;52.172;10.668;2023-04-25T20:59:27;7.00;1.00
15286;DHT22;7744;52.172;10.668;2023-04-25T21:01:53;6.00;1.00
15286;DHT22;7744;52.172;10.668;2023-04-25T21:04:19;6.00;1.00
15286;DHT22;7744;52.172;10.668;2023-04-25T21:06:45;6.00;1.00
15286;DHT22;7744;52.172;10.668;2023-04-25T21:09:11;5.90;1.00
15286;DHT22;7744;52.172;10.668;2023-04-25T21:11:38;5.90;1.00
15286;DHT22;7744;52.172;10.668;2023-04-25T21:14:04;5.90;1.00
15286;DHT22;7744;52.172;10.668;2023-04-25T21:16:30;5.90;1.00
15286;DHT22;7744;52.172;10.668;2023-04-25T21:18:57;5.80;1.00
15286;DHT22;7744;52.172;10.668;2023-04-25T21:21:23;5.80;1.00
15286;DHT22;7744;52.172;10.668;2023-04-25T21:23:49;5.90;1.00
15286;DHT22;7744;52.172;10.668;2023-04-25T21:26:15;6.90;1.00
15286;DHT22;7744;52.172;10.668;2023-04-25T21:28:40;7.40;1.00
15286;DHT22;7744;52.172;10.668;2023-04-25T21:31:06;5.90;1.00
15286;DHT22;7744;52.172;10.668;2023-04-25T21:33:31;5.90;1.00
15286;DHT22;7744;52.172;10.668;2023-04-25T21:35:57;5.90;1.00
15286;DHT22;7744;52.172;10.668;2023-04-25T21:38:23;5.80;1.00
15286;DHT22;7744;52.172;10.668;2023-04-25T21:40:49;5.90;1.00
15286;DHT22;7744;52.172;10.668;2023-04-25T21:43:15;5.70;1.00
15286;DHT22;7744;52.172;10.668;2023-04-25T21:45:40;5.60;1.00
15286;DHT22;7744;52.172;10.668;2023-04-25T21:48:06;5.60;1.00
15286;DHT22;7744;52.172;10.668;2023-04-25T21:50:32;6.00;1.00
15286;DHT22;7744;52.172;10.668;2023-04-25T21:52:57;5.70;1.00
15286;DHT22;7744;52.172;10.668;2023-04-25T21:55:24;5.60;1.00
15286;DHT22;7744;52.172;10.668;2023-04-25T21:57:51;5.60;1.00
15286;DHT22;7744;52.172;10.668;2023-04-25T22:00:18;5.60;1.00
15286;DHT22;7744;52.172;10.668;2023-04-25T22:02:54;5.70;1.00
15286;DHT22;7744;52.172;10.668;2023-04-25T22:05:20;5.60;1.00
15286;DHT22;7744;52.172;10.668;2023-04-25T22:07:48;5.50;1.00
15286;DHT22;7744;52.172;10.668;2023-04-25T22:10:14;5.60;1.00
15286;DHT22;7744;52.172;10.668;2023-04-25T22:12:40;5.60;1.00
15286;DHT22;7744;52.172;10.668;2023-04-25T22:15:06;5.60;1.00
15286;DHT22;7744;52.172;10.668;2023-04-25T22:17:33;5.60;1.00
15286;DHT22;7744;52.172;10.668;2023-04-25T22:19:59;5.40;1.00
15286;DHT22;7744;52.172;10.668;2023-04-25T22:22:26;5.30;1.00
15286;DHT22;7744;52.172;10.668;2023-04-25T22:24:53;5.90;1.00
15286;DHT22;7744;52.172;10.668;2023-04-25T22:27:19;5.50;1.00
15286;DHT22;7744;52.172;10.668;2023-04-25T22:29:44;5.60;1.00
15286;DHT22;7744;52.172;10.668;2023-04-25T22:32:10;5.60;1.00
15286;DHT22;7744;52.172;10.668;2023-04-25T22:34:36;5.80;1.00
15286;DHT22;7744;52.172;10.668;2023-04-25T22:37:01;5.80;1.00
15286;DHT22;7744;52.172;10.668;2023-04-25T22:39:29;5.80;1.00
15286;DHT22;7744;52.172;10.668;2023-04-25T22:41:54;5.80;1.00
15286;DHT22;7744;52.172;10.668;2023-04-25T22:44:20;5.60;1.00
15286;DHT22;7744;52.172;10.668;2023-04-25T22:46:46;5.70;1.00
15286;DHT22;7744;52.172;10.668;2023-04-25T22:49:12;5.60;1.00
15286;DHT22;7744;52.172;10.668;2023-04-25T22:51:37;5.50;1.00
15286;DHT22;7744;52.172;10.668;2023-04-25T22:54:03;5.40;1.00
15286;DHT22;7744;52.172;10.668;2023-04-25T22:56:29;5.40;1.00
15286;DHT22;7744;52.172;10.668;2023-04-25T22:58:55;5.30;1.00
15286;DHT22;7744;52.172;10.668;2023-04-25T23:01:21;5.30;1.00
15286;DHT22;7744;52.172;10.668;2023-04-25T23:03:46;5.20;1.00
15286;DHT22;7744;52.172;10.668;2023-04-25T23:06:12;5.20;1.00
15286;DHT22;7744;52.172;10.668;2023-04-25T23:08:38;5.10;1.00
15286;DHT22;7744;52.172;10.668;2023-04-25T23:11:07;5.00;1.00
15286;DHT22;7744;52.172;10.668;2023-04-25T23:13:33;5.30;1.00
15286;DHT22;7744;52.172;10.668;2023-04-25T23:16:06;5.40;1.00
15286;DHT22;7744;52.172;10.668;2023-04-25T23:18:34;5.20;1.00
15286;DHT22;7744;52.172;10.668;2023-04-25T23:21:00;5.10;1.00
15286;DHT22;7744;52.172;10.668;2023-04-25T23:23:27;4.90;1.00
15286;DHT22;7744;52.172;10.668;2023-04-25T23:25:52;4.80;1.00
15286;DHT22;7744;52.172;10.668;2023-04-25T23:28:18;5.90;1.00
15286;DHT22;7744;52.172;10.668;2023-04-25T23:30:43;4.80;1.00
15286;DHT22;7744;52.172;10.668;2023-04-25T23:33:09;4.80;1.00
15286;DHT22;7744;52.172;10.668;2023-04-25T23:35:37;4.70;1.00
15286;DHT22;7744;52.172;10.668;2023-04-25T23:38:02;4.60;1.00
15286;DHT22;7744;52.172;10.668;2023-04-25T23:40:28;4.70;1.00
15286;DHT22;7744;52.172;10.668;2023-04-25T23:42:56;4.70;1.00
15286;DHT22;7744;52.172;10.668;2023-04-25T23:45:22;4.70;1.00
15286;DHT22;7744;52.172;10.668;2023-04-25T23:47:48;4.60;1.00
15286;DHT22;7744;52.172;10.668;2023-04-25T23:50:13;4.60;1.00
15286;DHT22;7744;52.172;10.668;2023-04-25T23:52:39;4.70;1.00
15286;DHT22;7744;52.172;10.668;2023-04-25T23:55:05;4.70;1.00
15286;DHT22;7744;52.172;10.668;2023-04-25T23:57:31;4.80;1.00
15286;DHT22;7744;52.172;10.668;2023-04-25T23:59:57;4.70;1.00
